sensor_id;sensor_type;location;lat;lon;timestamp;P1;durP1;ratioP1;P2;durP2;ratioP2
9906;SDS011;4992;51.628;6.664;2023-09-19T00:02:02;8.35;;;2.00;;
9906;SDS011;4992;51.628;6.664;2023-09-19T00:04:31;11.85;;;2.95;;
9906;SDS011;4992;51.628;6.664;2023-09-19T00:06:58;7.85;;;2.17;;
9906;SDS011;4992;51.628;6.664;2023-09-19T00:09:24;12.63;;;2.65;;
9906;SDS011;4992;51.628;6.664;2023-09-19T00:11:53;7.72;;;2.53;;
9906;SDS011;4992;51.628;6.664;2023-09-19T00:14:19;4.57;;;1.83;;
9906;SDS011;4992;51.628;6.664;2023-09-19T00:16:49;9.25;;;1.92;;
9906;SDS011;4992;51.628;6.664;2023-09-19T00:19:15;7.95;;;2.15;;
9906;SDS011;4992;51.628;6.664;2023-09-19T00:21:41;10.40;;;2.25;;
9906;SDS011;4992;51.628;6.664;2023-09-19T00:24:08;9.10;;;2.25;;
9906;SDS011;4992;51.628;6.664;2023-09-19T00:26:34;9.45;;;2.05;;
9906;SDS011;4992;51.628;6.664;2023-09-19T00:29:01;6.35;;;2.10;;
9906;SDS011;4992;51.628;6.664;2023-09-19T00:31:33;6.90;;;2.08;;
9906;SDS011;4992;51.628;6.664;2023-09-19T00:33:59;7.70;;;1.90;;
9906;SDS011;4992;51.628;6.664;2023-09-19T00:36:29;8.65;;;1.85;;
9906;SDS011;4992;51.628;6.664;2023-09-19T00:38:55;8.93;;;1.50;;
9906;SDS011;4992;51.628;6.664;2023-09-19T00:41:21;8.60;;;2.13;;
9906;SDS011;4992;51.628;6.664;2023-09-19T00:43:47;6.35;;;2.20;;
9906;SDS011;4992;51.628;6.664;2023-09-19T00:46:15;11.23;;;2.10;;
9906;SDS011;4992;51.628;6.664;2023-09-19T00:48:42;11.93;;;2.17;;
9906;SDS011;4992;51.628;6.664;2023-09-19T00:51:11;5.25;;;2.13;;
9906;SDS011;4992;51.628;6.664;2023-09-19T00:53:39;9.70;;;2.22;;
9906;SDS011;4992;51.628;6.664;2023-09-19T00:56:05;9.88;;;2.85;;
9906;SDS011;4992;51.628;6.664;2023-09-19T00:58:31;7.32;;;1.88;;
9906;SDS011;4992;51.628;6.664;2023-09-19T01:00:58;9.88;;;2.08;;
9906;SDS011;4992;51.628;6.664;2023-09-19T01:03:24;8.60;;;1.95;;
9906;SDS011;4992;51.628;6.664;2023-09-19T01:05:50;11.43;;;2.10;;
9906;SDS011;4992;51.628;6.664;2023-09-19T01:08:17;12.52;;;2.17;;
9906;SDS011;4992;51.628;6.664;2023-09-19T01:10:52;9.15;;;2.30;;
9906;SDS011;4992;51.628;6.664;2023-09-19T01:18:35;13.48;;;1.95;;
9906;SDS011;4992;51.628;6.664;2023-09-19T01:29:15;7.20;;;1.50;;
9906;SDS011;4992;51.628;6.664;2023-09-19T01:31:44;8.27;;;2.38;;
9906;SDS011;4992;51.628;6.664;2023-09-19T01:34:11;9.63;;;2.25;;
9906;SDS011;4992;51.628;6.664;2023-09-19T01:36:37;11.10;;;2.38;;
9906;SDS011;4992;51.628;6.664;2023-09-19T01:39:21;11.50;;;2.80;;
9906;SDS011;4992;51.628;6.664;2023-09-19T01:44:20;8.98;;;2.30;;
9906;SDS011;4992;51.628;6.664;2023-09-19T01:46:48;11.48;;;2.53;;
9906;SDS011;4992;51.628;6.664;2023-09-19T01:52:15;9.75;;;2.90;;
9906;SDS011;4992;51.628;6.664;2023-09-19T01:54:48;8.55;;;2.13;;
9906;SDS011;4992;51.628;6.664;2023-09-19T02:00:09;11.20;;;2.38;;
9906;SDS011;4992;51.628;6.664;2023-09-19T02:02:40;10.43;;;2.15;;
9906;SDS011;4992;51.628;6.664;2023-09-19T02:05:09;10.15;;;2.20;;
9906;SDS011;4992;51.628;6.664;2023-09-19T02:07:36;6.40;;;1.75;;
9906;SDS011;4992;51.628;6.664;2023-09-19T02:10:04;9.95;;;1.77;;
9906;SDS011;4992;51.628;6.664;2023-09-19T02:12:31;13.30;;;2.38;;
9906;SDS011;4992;51.628;6.664;2023-09-19T02:14:57;10.38;;;2.45;;
9906;SDS011;4992;51.628;6.664;2023-09-19T02:17:24;9.45;;;2.28;;
9906;SDS011;4992;51.628;6.664;2023-09-19T02:19:53;9.77;;;2.08;;
9906;SDS011;4992;51.628;6.664;2023-09-19T02:22:24;7.40;;;2.05;;
9906;SDS011;4992;51.628;6.664;2023-09-19T02:24:50;10.63;;;2.83;;
9906;SDS011;4992;51.628;6.664;2023-09-19T02:27:17;7.75;;;1.63;;
9906;SDS011;4992;51.628;6.664;2023-09-19T02:29:43;9.63;;;2.00;;
9906;SDS011;4992;51.628;6.664;2023-09-19T02:32:09;8.75;;;2.13;;
9906;SDS011;4992;51.628;6.664;2023-09-19T02:34:35;12.00;;;2.42;;
9906;SDS011;4992;51.628;6.664;2023-09-19T02:37:05;10.05;;;2.10;;
9906;SDS011;4992;51.628;6.664;2023-09-19T02:39:31;5.15;;;1.75;;
9906;SDS011;4992;51.628;6.664;2023-09-19T02:41:57;9.68;;;2.15;;
9906;SDS011;4992;51.628;6.664;2023-09-19T02:44:23;7.15;;;1.90;;
9906;SDS011;4992;51.628;6.664;2023-09-19T02:46:50;5.90;;;2.30;;
9906;SDS011;4992;51.628;6.664;2023-09-19T02:49:16;10.45;;;2.08;;
9906;SDS011;4992;51.628;6.664;2023-09-19T02:51:43;11.25;;;2.58;;
9906;SDS011;4992;51.628;6.664;2023-09-19T02:54:09;5.22;;;1.90;;
9906;SDS011;4992;51.628;6.664;2023-09-19T02:56:36;11.07;;;2.35;;
9906;SDS011;4992;51.628;6.664;2023-09-19T02:59:02;7.40;;;2.15;;
9906;SDS011;4992;51.628;6.664;2023-09-19T03:01:28;9.45;;;2.17;;
9906;SDS011;4992;51.628;6.664;2023-09-19T03:03:55;6.85;;;2.08;;
9906;SDS011;4992;51.628;6.664;2023-09-19T03:06:21;8.77;;;2.33;;
9906;SDS011;4992;51.628;6.664;2023-09-19T03:08:48;5.75;;;1.73;;
9906;SDS011;4992;51.628;6.664;2023-09-19T03:11:16;7.57;;;1.60;;
9906;SDS011;4992;51.628;6.664;2023-09-19T03:13:50;11.35;;;2.40;;
9906;SDS011;4992;51.628;6.664;2023-09-19T03:16:15;8.43;;;2.13;;
9906;SDS011;4992;51.628;6.664;2023-09-19T03:18:41;8.20;;;2.10;;
9906;SDS011;4992;51.628;6.664;2023-09-19T03:21:08;6.28;;;2.00;;
9906;SDS011;4992;51.628;6.664;2023-09-19T03:23:34;5.60;;;1.92;;
9906;SDS011;4992;51.628;6.664;2023-09-19T03:26:00;8.85;;;2.10;;
9906;SDS011;4992;51.628;6.664;2023-09-19T03:28:26;8.73;;;2.08;;
9906;SDS011;4992;51.628;6.664;2023-09-19T03:30:59;9.10;;;1.75;;
9906;SDS011;4992;51.628;6.664;2023-09-19T03:33:25;6.78;;;1.85;;
9906;SDS011;4992;51.628;6.664;2023-09-19T03:35:52;10.98;;;2.10;;
9906;SDS011;4992;51.628;6.664;2023-09-19T03:38:18;4.45;;;1.58;;
9906;SDS011;4992;51.628;6.664;2023-09-19T03:40:44;7.65;;;2.20;;
9906;SDS011;4992;51.628;6.664;2023-09-19T03:43:10;11.63;;;2.35;;
9906;SDS011;4992;51.628;6.664;2023-09-19T03:45:36;7.43;;;1.83;;
9906;SDS011;4992;51.628;6.664;2023-09-19T03:48:07;9.80;;;2.15;;
9906;SDS011;4992;51.628;6.664;2023-09-19T03:50:33;9.52;;;1.98;;
9906;SDS011;4992;51.628;6.664;2023-09-19T03:52:59;8.88;;;1.70;;
9906;SDS011;4992;51.628;6.664;2023-09-19T03:55:25;7.53;;;1.85;;
9906;SDS011;4992;51.628;6.664;2023-09-19T03:57:51;10.35;;;2.08;;
9906;SDS011;4992;51.628;6.664;2023-09-19T04:00:18;11.57;;;2.33;;
9906;SDS011;4992;51.628;6.664;2023-09-19T04:02:46;10.10;;;1.92;;
9906;SDS011;4992;51.628;6.664;2023-09-19T04:05:12;6.20;;;1.67;;
9906;SDS011;4992;51.628;6.664;2023-09-19T04:07:39;10.68;;;2.15;;
9906;SDS011;4992;51.628;6.664;2023-09-19T04:10:05;8.60;;;1.60;;
9906;SDS011;4992;51.628;6.664;2023-09-19T04:12:33;11.82;;;1.95;;
9906;SDS011;4992;51.628;6.664;2023-09-19T04:14:59;6.20;;;1.60;;
9906;SDS011;4992;51.628;6.664;2023-09-19T04:17:25;10.18;;;1.98;;
9906;SDS011;4992;51.628;6.664;2023-09-19T04:19:51;9.90;;;1.90;;
9906;SDS011;4992;51.628;6.664;2023-09-19T04:22:18;7.70;;;2.03;;
9906;SDS011;4992;51.628;6.664;2023-09-19T04:24:44;8.93;;;2.05;;
9906;SDS011;4992;51.628;6.664;2023-09-19T04:27:10;9.55;;;1.98;;
9906;SDS011;4992;51.628;6.664;2023-09-19T04:29:39;5.70;;;2.05;;
9906;SDS011;4992;51.628;6.664;2023-09-19T04:32:06;7.60;;;1.90;;
9906;SDS011;4992;51.628;6.664;2023-09-19T04:34:32;8.25;;;2.05;;
9906;SDS011;4992;51.628;6.664;2023-09-19T04:36:59;6.40;;;2.03;;
9906;SDS011;4992;51.628;6.664;2023-09-19T04:39:25;8.45;;;1.27;;
9906;SDS011;4992;51.628;6.664;2023-09-19T04:41:52;11.60;;;2.53;;
9906;SDS011;4992;51.628;6.664;2023-09-19T04:44:18;10.43;;;1.92;;
9906;SDS011;4992;51.628;6.664;2023-09-19T04:46:44;6.05;;;1.60;;
9906;SDS011;4992;51.628;6.664;2023-09-19T04:49:11;10.35;;;1.88;;
9906;SDS011;4992;51.628;6.664;2023-09-19T04:51:38;7.40;;;2.00;;
9906;SDS011;4992;51.628;6.664;2023-09-19T04:54:04;7.15;;;1.70;;
9906;SDS011;4992;51.628;6.664;2023-09-19T04:56:30;8.88;;;1.63;;
9906;SDS011;4992;51.628;6.664;2023-09-19T04:58:57;9.35;;;2.22;;
9906;SDS011;4992;51.628;6.664;2023-09-19T05:01:23;9.43;;;1.70;;
9906;SDS011;4992;51.628;6.664;2023-09-19T05:03:49;8.95;;;2.53;;
9906;SDS011;4992;51.628;6.664;2023-09-19T05:06:21;8.77;;;2.20;;
9906;SDS011;4992;51.628;6.664;2023-09-19T05:08:47;7.72;;;1.83;;
9906;SDS011;4992;51.628;6.664;2023-09-19T05:11:20;7.13;;;2.22;;
9906;SDS011;4992;51.628;6.664;2023-09-19T05:13:47;6.30;;;1.80;;
9906;SDS011;4992;51.628;6.664;2023-09-19T05:16:15;7.68;;;2.05;;
9906;SDS011;4992;51.628;6.664;2023-09-19T05:18:41;21.55;;;3.70;;
9906;SDS011;4992;51.628;6.664;2023-09-19T05:21:07;10.90;;;3.50;;
9906;SDS011;4992;51.628;6.664;2023-09-19T05:23:33;9.18;;;2.08;;
9906;SDS011;4992;51.628;6.664;2023-09-19T05:25:59;12.70;;;2.33;;
9906;SDS011;4992;51.628;6.664;2023-09-19T05:28:25;11.70;;;2.55;;
9906;SDS011;4992;51.628;6.664;2023-09-19T05:30:51;8.57;;;2.10;;
9906;SDS011;4992;51.628;6.664;2023-09-19T05:33:18;10.85;;;2.78;;
9906;SDS011;4992;51.628;6.664;2023-09-19T05:35:44;8.07;;;1.73;;
9906;SDS011;4992;51.628;6.664;2023-09-19T05:38:11;7.65;;;2.42;;
9906;SDS011;4992;51.628;6.664;2023-09-19T05:40:38;11.35;;;2.03;;
9906;SDS011;4992;51.628;6.664;2023-09-19T05:43:07;11.10;;;2.38;;
9906;SDS011;4992;51.628;6.664;2023-09-19T05:45:33;6.20;;;1.90;;
9906;SDS011;4992;51.628;6.664;2023-09-19T05:48:06;6.63;;;2.30;;
9906;SDS011;4992;51.628;6.664;2023-09-19T05:50:33;7.75;;;2.03;;
9906;SDS011;4992;51.628;6.664;2023-09-19T05:52:59;5.65;;;1.98;;
9906;SDS011;4992;51.628;6.664;2023-09-19T05:55:25;8.05;;;1.98;;
9906;SDS011;4992;51.628;6.664;2023-09-19T05:57:53;11.57;;;2.30;;
9906;SDS011;4992;51.628;6.664;2023-09-19T06:00:20;8.63;;;1.77;;
9906;SDS011;4992;51.628;6.664;2023-09-19T06:02:50;8.80;;;2.08;;
9906;SDS011;4992;51.628;6.664;2023-09-19T06:05:17;6.53;;;1.90;;
9906;SDS011;4992;51.628;6.664;2023-09-19T06:07:42;5.88;;;2.10;;
9906;SDS011;4992;51.628;6.664;2023-09-19T06:10:09;8.32;;;2.33;;
9906;SDS011;4992;51.628;6.664;2023-09-19T06:12:38;7.55;;;1.92;;
9906;SDS011;4992;51.628;6.664;2023-09-19T06:15:04;5.40;;;1.73;;
9906;SDS011;4992;51.628;6.664;2023-09-19T06:17:31;9.95;;;2.08;;
9906;SDS011;4992;51.628;6.664;2023-09-19T06:19:57;8.98;;;2.28;;
9906;SDS011;4992;51.628;6.664;2023-09-19T06:22:24;8.65;;;2.08;;
9906;SDS011;4992;51.628;6.664;2023-09-19T06:24:50;6.97;;;1.95;;
9906;SDS011;4992;51.628;6.664;2023-09-19T06:27:16;6.35;;;2.55;;
9906;SDS011;4992;51.628;6.664;2023-09-19T06:29:42;7.95;;;1.85;;
9906;SDS011;4992;51.628;6.664;2023-09-19T06:32:08;15.77;;;2.65;;
9906;SDS011;4992;51.628;6.664;2023-09-19T06:34:35;9.90;;;2.53;;
9906;SDS011;4992;51.628;6.664;2023-09-19T06:37:01;9.02;;;2.03;;
9906;SDS011;4992;51.628;6.664;2023-09-19T06:39:28;6.78;;;2.05;;
9906;SDS011;4992;51.628;6.664;2023-09-19T06:41:54;8.35;;;2.40;;
9906;SDS011;4992;51.628;6.664;2023-09-19T06:44:20;9.25;;;2.22;;
9906;SDS011;4992;51.628;6.664;2023-09-19T06:46:49;8.55;;;2.20;;
9906;SDS011;4992;51.628;6.664;2023-09-19T06:49:16;10.10;;;2.35;;
9906;SDS011;4992;51.628;6.664;2023-09-19T06:51:43;8.30;;;2.60;;
9906;SDS011;4992;51.628;6.664;2023-09-19T06:54:09;5.25;;;1.75;;
9906;SDS011;4992;51.628;6.664;2023-09-19T06:56:35;8.23;;;2.30;;
9906;SDS011;4992;51.628;6.664;2023-09-19T06:59:01;13.00;;;2.45;;
9906;SDS011;4992;51.628;6.664;2023-09-19T07:01:30;8.00;;;2.05;;
9906;SDS011;4992;51.628;6.664;2023-09-19T07:03:57;7.32;;;1.98;;
9906;SDS011;4992;51.628;6.664;2023-09-19T07:06:23;9.85;;;2.20;;
9906;SDS011;4992;51.628;6.664;2023-09-19T07:08:49;8.52;;;2.25;;
9906;SDS011;4992;51.628;6.664;2023-09-19T07:11:15;8.68;;;1.98;;
9906;SDS011;4992;51.628;6.664;2023-09-19T07:13:41;9.65;;;2.38;;
9906;SDS011;4992;51.628;6.664;2023-09-19T07:16:08;10.15;;;2.38;;
9906;SDS011;4992;51.628;6.664;2023-09-19T07:18:52;11.20;;;2.25;;
9906;SDS011;4992;51.628;6.664;2023-09-19T07:21:18;8.63;;;2.53;;
9906;SDS011;4992;51.628;6.664;2023-09-19T07:23:43;10.35;;;2.58;;
9906;SDS011;4992;51.628;6.664;2023-09-19T07:26:09;7.85;;;2.13;;
9906;SDS011;4992;51.628;6.664;2023-09-19T07:28:35;9.50;;;1.95;;
9906;SDS011;4992;51.628;6.664;2023-09-19T07:31:04;11.88;;;2.15;;
9906;SDS011;4992;51.628;6.664;2023-09-19T07:33:34;10.52;;;2.38;;
9906;SDS011;4992;51.628;6.664;2023-09-19T07:36:00;7.70;;;2.20;;
9906;SDS011;4992;51.628;6.664;2023-09-19T07:38:26;14.23;;;3.60;;
9906;SDS011;4992;51.628;6.664;2023-09-19T07:40:51;10.48;;;1.98;;
9906;SDS011;4992;51.628;6.664;2023-09-19T07:43:17;13.57;;;2.30;;
9906;SDS011;4992;51.628;6.664;2023-09-19T07:45:43;5.95;;;1.77;;
9906;SDS011;4992;51.628;6.664;2023-09-19T07:48:09;11.35;;;1.80;;
9906;SDS011;4992;51.628;6.664;2023-09-19T07:50:40;9.35;;;2.38;;
9906;SDS011;4992;51.628;6.664;2023-09-19T07:53:09;8.35;;;2.45;;
9906;SDS011;4992;51.628;6.664;2023-09-19T07:55:35;9.30;;;2.03;;
9906;SDS011;4992;51.628;6.664;2023-09-19T07:58:01;8.05;;;2.00;;
9906;SDS011;4992;51.628;6.664;2023-09-19T08:00:29;11.07;;;2.60;;
9906;SDS011;4992;51.628;6.664;2023-09-19T08:02:55;12.40;;;3.47;;
9906;SDS011;4992;51.628;6.664;2023-09-19T08:05:21;12.48;;;2.67;;
9906;SDS011;4992;51.628;6.664;2023-09-19T08:07:47;9.70;;;2.28;;
9906;SDS011;4992;51.628;6.664;2023-09-19T08:10:14;7.07;;;2.00;;
9906;SDS011;4992;51.628;6.664;2023-09-19T08:12:41;10.45;;;1.90;;
9906;SDS011;4992;51.628;6.664;2023-09-19T08:15:16;9.13;;;2.33;;
9906;SDS011;4992;51.628;6.664;2023-09-19T08:17:44;9.05;;;2.00;;
9906;SDS011;4992;51.628;6.664;2023-09-19T08:20:10;10.38;;;1.90;;
9906;SDS011;4992;51.628;6.664;2023-09-19T08:22:47;7.55;;;2.45;;
9906;SDS011;4992;51.628;6.664;2023-09-19T08:25:14;12.00;;;2.17;;
9906;SDS011;4992;51.628;6.664;2023-09-19T08:27:42;10.02;;;2.53;;
9906;SDS011;4992;51.628;6.664;2023-09-19T08:30:12;11.98;;;2.83;;
9906;SDS011;4992;51.628;6.664;2023-09-19T08:32:39;9.45;;;2.40;;
9906;SDS011;4992;51.628;6.664;2023-09-19T08:35:07;10.02;;;2.17;;
9906;SDS011;4992;51.628;6.664;2023-09-19T08:37:34;8.15;;;2.42;;
9906;SDS011;4992;51.628;6.664;2023-09-19T08:40:00;6.47;;;1.88;;
9906;SDS011;4992;51.628;6.664;2023-09-19T08:42:26;8.43;;;2.58;;
9906;SDS011;4992;51.628;6.664;2023-09-19T08:44:52;8.93;;;2.03;;
9906;SDS011;4992;51.628;6.664;2023-09-19T08:47:21;9.77;;;2.05;;
9906;SDS011;4992;51.628;6.664;2023-09-19T08:49:53;12.10;;;1.98;;
9906;SDS011;4992;51.628;6.664;2023-09-19T08:52:25;9.07;;;2.15;;
9906;SDS011;4992;51.628;6.664;2023-09-19T08:54:53;10.40;;;2.40;;
9906;SDS011;4992;51.628;6.664;2023-09-19T08:57:27;6.90;;;2.00;;
9906;SDS011;4992;51.628;6.664;2023-09-19T08:59:54;8.85;;;2.70;;
9906;SDS011;4992;51.628;6.664;2023-09-19T09:02:21;11.20;;;2.72;;
9906;SDS011;4992;51.628;6.664;2023-09-19T09:04:48;10.50;;;1.77;;
9906;SDS011;4992;51.628;6.664;2023-09-19T09:07:15;8.95;;;3.15;;
9906;SDS011;4992;51.628;6.664;2023-09-19T09:09:44;10.10;;;2.67;;
9906;SDS011;4992;51.628;6.664;2023-09-19T09:12:13;6.03;;;2.00;;
9906;SDS011;4992;51.628;6.664;2023-09-19T09:14:40;12.77;;;2.45;;
9906;SDS011;4992;51.628;6.664;2023-09-19T09:17:10;11.13;;;2.47;;
9906;SDS011;4992;51.628;6.664;2023-09-19T09:19:37;9.45;;;2.05;;
9906;SDS011;4992;51.628;6.664;2023-09-19T09:22:06;8.18;;;1.85;;
9906;SDS011;4992;51.628;6.664;2023-09-19T09:24:32;10.57;;;2.78;;
9906;SDS011;4992;51.628;6.664;2023-09-19T09:26:59;8.30;;;2.22;;
9906;SDS011;4992;51.628;6.664;2023-09-19T09:32:21;9.85;;;2.45;;
9906;SDS011;4992;51.628;6.664;2023-09-19T09:34:49;7.18;;;2.03;;
9906;SDS011;4992;51.628;6.664;2023-09-19T09:37:15;10.75;;;2.72;;
9906;SDS011;4992;51.628;6.664;2023-09-19T09:39:51;6.85;;;2.40;;
9906;SDS011;4992;51.628;6.664;2023-09-19T09:42:38;8.35;;;2.38;;
9906;SDS011;4992;51.628;6.664;2023-09-19T09:45:14;10.85;;;2.40;;
9906;SDS011;4992;51.628;6.664;2023-09-19T09:47:44;9.70;;;3.13;;
9906;SDS011;4992;51.628;6.664;2023-09-19T09:50:23;6.63;;;1.73;;
9906;SDS011;4992;51.628;6.664;2023-09-19T09:52:54;11.80;;;2.55;;
9906;SDS011;4992;51.628;6.664;2023-09-19T09:55:25;6.72;;;2.17;;
9906;SDS011;4992;51.628;6.664;2023-09-19T09:58:15;8.70;;;2.35;;
9906;SDS011;4992;51.628;6.664;2023-09-19T10:00:52;14.60;;;2.50;;
9906;SDS011;4992;51.628;6.664;2023-09-19T10:03:30;10.98;;;2.58;;
9906;SDS011;4992;51.628;6.664;2023-09-19T10:05:56;7.90;;;2.05;;
9906;SDS011;4992;51.628;6.664;2023-09-19T10:08:23;11.57;;;2.70;;
9906;SDS011;4992;51.628;6.664;2023-09-19T10:10:51;7.75;;;2.08;;
9906;SDS011;4992;51.628;6.664;2023-09-19T10:13:17;12.35;;;3.20;;
9906;SDS011;4992;51.628;6.664;2023-09-19T10:15:49;7.88;;;2.20;;
9906;SDS011;4992;51.628;6.664;2023-09-19T10:18:16;10.27;;;2.10;;
9906;SDS011;4992;51.628;6.664;2023-09-19T10:20:46;5.85;;;2.28;;
9906;SDS011;4992;51.628;6.664;2023-09-19T10:23:14;9.73;;;2.35;;
9906;SDS011;4992;51.628;6.664;2023-09-19T10:25:42;10.75;;;2.05;;
9906;SDS011;4992;51.628;6.664;2023-09-19T10:28:13;5.93;;;2.05;;
9906;SDS011;4992;51.628;6.664;2023-09-19T10:30:49;8.48;;;2.45;;
9906;SDS011;4992;51.628;6.664;2023-09-19T10:33:17;10.27;;;2.78;;
9906;SDS011;4992;51.628;6.664;2023-09-19T10:35:46;6.63;;;1.98;;
9906;SDS011;4992;51.628;6.664;2023-09-19T10:38:13;6.07;;;1.85;;
9906;SDS011;4992;51.628;6.664;2023-09-19T10:40:44;6.00;;;1.67;;
9906;SDS011;4992;51.628;6.664;2023-09-19T10:43:11;7.70;;;2.20;;
9906;SDS011;4992;51.628;6.664;2023-09-19T10:45:38;7.10;;;1.80;;
9906;SDS011;4992;51.628;6.664;2023-09-19T10:48:04;7.13;;;2.35;;
9906;SDS011;4992;51.628;6.664;2023-09-19T10:50:33;6.63;;;2.28;;
9906;SDS011;4992;51.628;6.664;2023-09-19T10:53:02;6.30;;;1.75;;
9906;SDS011;4992;51.628;6.664;2023-09-19T10:55:30;7.72;;;1.83;;
9906;SDS011;4992;51.628;6.664;2023-09-19T10:57:57;7.13;;;2.17;;
9906;SDS011;4992;51.628;6.664;2023-09-19T11:00:25;7.72;;;2.10;;
9906;SDS011;4992;51.628;6.664;2023-09-19T11:05:37;7.20;;;1.80;;
9906;SDS011;4992;51.628;6.664;2023-09-19T11:08:06;4.55;;;1.65;;
9906;SDS011;4992;51.628;6.664;2023-09-19T11:10:51;8.82;;;2.33;;
9906;SDS011;4992;51.628;6.664;2023-09-19T11:13:26;6.70;;;1.80;;
9906;SDS011;4992;51.628;6.664;2023-09-19T11:19:09;6.57;;;1.70;;
9906;SDS011;4992;51.628;6.664;2023-09-19T11:26:40;5.38;;;1.50;;
9906;SDS011;4992;51.628;6.664;2023-09-19T11:29:25;6.97;;;1.83;;
9906;SDS011;4992;51.628;6.664;2023-09-19T11:31:51;7.15;;;2.00;;
9906;SDS011;4992;51.628;6.664;2023-09-19T11:39:37;4.53;;;1.52;;
9906;SDS011;4992;51.628;6.664;2023-09-19T11:44:48;6.10;;;1.60;;
9906;SDS011;4992;51.628;6.664;2023-09-19T11:47:17;5.63;;;1.40;;
9906;SDS011;4992;51.628;6.664;2023-09-19T11:49:44;6.72;;;1.60;;
9906;SDS011;4992;51.628;6.664;2023-09-19T11:52:11;5.70;;;1.73;;
9906;SDS011;4992;51.628;6.664;2023-09-19T11:54:39;6.05;;;1.50;;
9906;SDS011;4992;51.628;6.664;2023-09-19T11:57:06;8.20;;;2.17;;
9906;SDS011;4992;51.628;6.664;2023-09-19T11:59:33;6.00;;;1.75;;
9906;SDS011;4992;51.628;6.664;2023-09-19T12:02:03;5.63;;;1.83;;
9906;SDS011;4992;51.628;6.664;2023-09-19T12:07:02;7.35;;;2.10;;
9906;SDS011;4992;51.628;6.664;2023-09-19T12:09:29;8.15;;;2.20;;
9906;SDS011;4992;51.628;6.664;2023-09-19T12:11:55;9.18;;;2.00;;
9906;SDS011;4992;51.628;6.664;2023-09-19T12:14:23;8.50;;;1.73;;
9906;SDS011;4992;51.628;6.664;2023-09-19T12:16:55;6.63;;;1.73;;
9906;SDS011;4992;51.628;6.664;2023-09-19T12:19:22;7.32;;;1.98;;
9906;SDS011;4992;51.628;6.664;2023-09-19T12:21:57;5.68;;;1.42;;
9906;SDS011;4992;51.628;6.664;2023-09-19T12:24:25;5.55;;;1.63;;
9906;SDS011;4992;51.628;6.664;2023-09-19T12:26:51;5.47;;;1.58;;
9906;SDS011;4992;51.628;6.664;2023-09-19T12:29:18;2.78;;;1.23;;
9906;SDS011;4992;51.628;6.664;2023-09-19T12:31:54;6.18;;;1.67;;
9906;SDS011;4992;51.628;6.664;2023-09-19T12:34:26;5.68;;;1.85;;
9906;SDS011;4992;51.628;6.664;2023-09-19T12:37:05;6.13;;;1.85;;
9906;SDS011;4992;51.628;6.664;2023-09-19T12:39:40;7.20;;;2.03;;
9906;SDS011;4992;51.628;6.664;2023-09-19T12:42:10;5.47;;;1.52;;
9906;SDS011;4992;51.628;6.664;2023-09-19T12:44:40;5.30;;;1.35;;
9906;SDS011;4992;51.628;6.664;2023-09-19T12:47:08;6.97;;;1.65;;
9906;SDS011;4992;51.628;6.664;2023-09-19T12:49:35;6.13;;;1.70;;
9906;SDS011;4992;51.628;6.664;2023-09-19T12:52:01;7.18;;;1.60;;
9906;SDS011;4992;51.628;6.664;2023-09-19T12:54:39;5.05;;;1.52;;
9906;SDS011;4992;51.628;6.664;2023-09-19T12:57:06;11.00;;;1.65;;
9906;SDS011;4992;51.628;6.664;2023-09-19T12:59:32;6.65;;;1.60;;
9906;SDS011;4992;51.628;6.664;2023-09-19T13:02:04;5.28;;;1.85;;
9906;SDS011;4992;51.628;6.664;2023-09-19T13:04:32;4.63;;;1.13;;
9906;SDS011;4992;51.628;6.664;2023-09-19T13:06:59;6.57;;;1.60;;
9906;SDS011;4992;51.628;6.664;2023-09-19T13:09:26;5.20;;;1.30;;
9906;SDS011;4992;51.628;6.664;2023-09-19T13:12:03;3.65;;;1.27;;
9906;SDS011;4992;51.628;6.664;2023-09-19T13:14:30;5.95;;;1.50;;
9906;SDS011;4992;51.628;6.664;2023-09-19T13:17:01;5.60;;;1.65;;
9906;SDS011;4992;51.628;6.664;2023-09-19T13:22:41;5.82;;;1.30;;
9906;SDS011;4992;51.628;6.664;2023-09-19T13:25:12;5.22;;;1.00;;
9906;SDS011;4992;51.628;6.664;2023-09-19T13:27:41;3.05;;;0.93;;
9906;SDS011;4992;51.628;6.664;2023-09-19T13:30:07;5.35;;;1.58;;
9906;SDS011;4992;51.628;6.664;2023-09-19T13:32:33;4.32;;;1.10;;
9906;SDS011;4992;51.628;6.664;2023-09-19T13:34:59;4.63;;;1.30;;
9906;SDS011;4992;51.628;6.664;2023-09-19T13:37:25;3.45;;;0.82;;
9906;SDS011;4992;51.628;6.664;2023-09-19T13:39:51;2.47;;;0.88;;
9906;SDS011;4992;51.628;6.664;2023-09-19T13:42:18;5.60;;;1.10;;
9906;SDS011;4992;51.628;6.664;2023-09-19T13:44:46;8.73;;;1.40;;
9906;SDS011;4992;51.628;6.664;2023-09-19T13:47:12;6.80;;;1.10;;
9906;SDS011;4992;51.628;6.664;2023-09-19T13:49:40;3.28;;;1.00;;
9906;SDS011;4992;51.628;6.664;2023-09-19T13:52:07;2.65;;;0.85;;
9906;SDS011;4992;51.628;6.664;2023-09-19T13:54:33;6.60;;;1.40;;
9906;SDS011;4992;51.628;6.664;2023-09-19T13:56:59;4.40;;;0.55;;
9906;SDS011;4992;51.628;6.664;2023-09-19T13:59:25;4.13;;;1.02;;
9906;SDS011;4992;51.628;6.664;2023-09-19T14:01:53;3.28;;;1.25;;
9906;SDS011;4992;51.628;6.664;2023-09-19T14:04:20;3.92;;;0.80;;
9906;SDS011;4992;51.628;6.664;2023-09-19T14:06:47;2.92;;;0.98;;
9906;SDS011;4992;51.628;6.664;2023-09-19T14:09:13;3.05;;;0.80;;
9906;SDS011;4992;51.628;6.664;2023-09-19T14:11:39;4.43;;;0.90;;
9906;SDS011;4992;51.628;6.664;2023-09-19T14:14:07;3.20;;;0.80;;
9906;SDS011;4992;51.628;6.664;2023-09-19T14:16:33;4.90;;;1.02;;
9906;SDS011;4992;51.628;6.664;2023-09-19T14:18:59;4.68;;;0.93;;
9906;SDS011;4992;51.628;6.664;2023-09-19T14:21:25;3.55;;;0.80;;
9906;SDS011;4992;51.628;6.664;2023-09-19T14:23:51;3.92;;;0.80;;
9906;SDS011;4992;51.628;6.664;2023-09-19T14:26:19;4.72;;;0.70;;
9906;SDS011;4992;51.628;6.664;2023-09-19T14:28:48;1.80;;;0.68;;
9906;SDS011;4992;51.628;6.664;2023-09-19T14:31:14;5.25;;;1.10;;
9906;SDS011;4992;51.628;6.664;2023-09-19T14:33:40;2.03;;;0.60;;
9906;SDS011;4992;51.628;6.664;2023-09-19T14:36:07;4.20;;;1.15;;
9906;SDS011;4992;51.628;6.664;2023-09-19T14:38:35;3.30;;;1.00;;
9906;SDS011;4992;51.628;6.664;2023-09-19T14:41:02;1.95;;;0.70;;
9906;SDS011;4992;51.628;6.664;2023-09-19T14:43:28;4.25;;;1.02;;
9906;SDS011;4992;51.628;6.664;2023-09-19T14:45:55;1.42;;;0.63;;
9906;SDS011;4992;51.628;6.664;2023-09-19T14:48:22;2.65;;;0.77;;
9906;SDS011;4992;51.628;6.664;2023-09-19T14:50:52;3.72;;;0.73;;
9906;SDS011;4992;51.628;6.664;2023-09-19T14:53:18;2.63;;;0.70;;
9906;SDS011;4992;51.628;6.664;2023-09-19T14:55:45;1.83;;;0.60;;
9906;SDS011;4992;51.628;6.664;2023-09-19T14:58:12;3.78;;;1.08;;
9906;SDS011;4992;51.628;6.664;2023-09-19T15:00:38;3.63;;;0.80;;
9906;SDS011;4992;51.628;6.664;2023-09-19T15:03:04;2.72;;;0.52;;
9906;SDS011;4992;51.628;6.664;2023-09-19T15:05:31;5.40;;;0.70;;
9906;SDS011;4992;51.628;6.664;2023-09-19T15:07:57;2.03;;;0.60;;
9906;SDS011;4992;51.628;6.664;2023-09-19T15:10:23;2.75;;;0.77;;
9906;SDS011;4992;51.628;6.664;2023-09-19T15:12:49;5.00;;;0.70;;
9906;SDS011;4992;51.628;6.664;2023-09-19T15:15:15;1.75;;;0.60;;
9906;SDS011;4992;51.628;6.664;2023-09-19T15:17:41;2.15;;;0.52;;
9906;SDS011;4992;51.628;6.664;2023-09-19T15:20:07;2.97;;;0.57;;
9906;SDS011;4992;51.628;6.664;2023-09-19T15:22:33;10.57;;;0.70;;
9906;SDS011;4992;51.628;6.664;2023-09-19T15:25:00;4.30;;;0.60;;
9906;SDS011;4992;51.628;6.664;2023-09-19T15:27:27;3.70;;;0.85;;
9906;SDS011;4992;51.628;6.664;2023-09-19T15:29:54;2.22;;;0.98;;
9906;SDS011;4992;51.628;6.664;2023-09-19T15:32:20;1.83;;;0.60;;
9906;SDS011;4992;51.628;6.664;2023-09-19T15:34:47;4.00;;;0.90;;
9906;SDS011;4992;51.628;6.664;2023-09-19T15:37:13;2.42;;;0.63;;
9906;SDS011;4992;51.628;6.664;2023-09-19T15:39:39;3.92;;;0.60;;
9906;SDS011;4992;51.628;6.664;2023-09-19T15:42:06;4.75;;;0.50;;
9906;SDS011;4992;51.628;6.664;2023-09-19T15:44:32;3.38;;;0.50;;
9906;SDS011;4992;51.628;6.664;2023-09-19T15:46:58;1.83;;;0.65;;
9906;SDS011;4992;51.628;6.664;2023-09-19T15:49:24;3.03;;;0.80;;
9906;SDS011;4992;51.628;6.664;2023-09-19T15:51:50;5.28;;;0.65;;
9906;SDS011;4992;51.628;6.664;2023-09-19T15:54:16;2.40;;;0.85;;
9906;SDS011;4992;51.628;6.664;2023-09-19T15:56:43;2.53;;;0.80;;
9906;SDS011;4992;51.628;6.664;2023-09-19T15:59:09;3.63;;;0.70;;
9906;SDS011;4992;51.628;6.664;2023-09-19T16:01:37;0.80;;;0.60;;
9906;SDS011;4992;51.628;6.664;2023-09-19T16:04:03;3.17;;;0.90;;
9906;SDS011;4992;51.628;6.664;2023-09-19T16:06:30;3.00;;;0.55;;